sensor_id;sensor_type;location;lat;lon;timestamp;P1;durP1;ratioP1;P2;durP2;ratioP2
12151;SDS011;6139;51.274;7.128;2023-05-07T00:00:11;3.22;;;2.58;;
12151;SDS011;6139;51.274;7.128;2023-05-07T00:01:15;2.70;;;2.38;;
12151;SDS011;6139;51.274;7.128;2023-05-07T00:02:17;3.13;;;2.50;;
12151;SDS011;6139;51.274;7.128;2023-05-07T00:03:18;3.80;;;2.38;;
12151;SDS011;6139;51.274;7.128;2023-05-07T00:04:20;2.95;;;2.60;;
12151;SDS011;6139;51.274;7.128;2023-05-07T00:05:21;3.90;;;2.55;;
12151;SDS011;6139;51.274;7.128;2023-05-07T00:06:23;3.75;;;2.55;;
12151;SDS011;6139;51.274;7.128;2023-05-07T00:07:24;2.50;;;2.30;;
12151;SDS011;6139;51.274;7.128;2023-05-07T00:08:26;2.83;;;2.40;;
12151;SDS011;6139;51.274;7.128;2023-05-07T00:09:27;3.00;;;2.45;;
12151;SDS011;6139;51.274;7.128;2023-05-07T00:10:29;2.90;;;2.70;;
12151;SDS011;6139;51.274;7.128;2023-05-07T00:11:30;3.05;;;2.55;;
12151;SDS011;6139;51.274;7.128;2023-05-07T00:12:32;2.67;;;2.47;;
12151;SDS011;6139;51.274;7.128;2023-05-07T00:13:35;3.20;;;2.50;;
12151;SDS011;6139;51.274;7.128;2023-05-07T00:14:37;3.08;;;2.60;;
12151;SDS011;6139;51.274;7.128;2023-05-07T00:15:38;3.17;;;2.55;;
12151;SDS011;6139;51.274;7.128;2023-05-07T00:16:40;3.85;;;2.50;;
12151;SDS011;6139;51.274;7.128;2023-05-07T00:17:41;4.03;;;2.65;;
12151;SDS011;6139;51.274;7.128;2023-05-07T00:18:43;2.80;;;2.50;;
12151;SDS011;6139;51.274;7.128;2023-05-07T00:19:44;3.47;;;2.35;;
12151;SDS011;6139;51.274;7.128;2023-05-07T00:20:46;3.28;;;2.42;;
12151;SDS011;6139;51.274;7.128;2023-05-07T00:21:47;2.58;;;2.30;;
12151;SDS011;6139;51.274;7.128;2023-05-07T00:22:49;4.43;;;3.03;;
12151;SDS011;6139;51.274;7.128;2023-05-07T00:23:50;2.95;;;2.63;;
12151;SDS011;6139;51.274;7.128;2023-05-07T00:24:52;3.15;;;2.47;;
12151;SDS011;6139;51.274;7.128;2023-05-07T00:25:53;2.70;;;2.50;;
12151;SDS011;6139;51.274;7.128;2023-05-07T00:26:55;3.47;;;2.70;;
12151;SDS011;6139;51.274;7.128;2023-05-07T00:27:58;2.80;;;2.60;;
12151;SDS011;6139;51.274;7.128;2023-05-07T00:29:05;2.92;;;2.63;;
12151;SDS011;6139;51.274;7.128;2023-05-07T00:30:06;3.25;;;2.70;;
12151;SDS011;6139;51.274;7.128;2023-05-07T00:31:09;3.40;;;2.30;;
12151;SDS011;6139;51.274;7.128;2023-05-07T00:32:10;2.65;;;2.42;;
12151;SDS011;6139;51.274;7.128;2023-05-07T00:33:12;3.55;;;2.50;;
12151;SDS011;6139;51.274;7.128;2023-05-07T00:34:13;4.95;;;2.40;;
12151;SDS011;6139;51.274;7.128;2023-05-07T00:35:15;3.25;;;2.50;;
12151;SDS011;6139;51.274;7.128;2023-05-07T00:36:16;2.40;;;2.17;;
12151;SDS011;6139;51.274;7.128;2023-05-07T00:37:18;3.38;;;2.60;;
12151;SDS011;6139;51.274;7.128;2023-05-07T00:38:19;3.40;;;2.75;;
12151;SDS011;6139;51.274;7.128;2023-05-07T00:39:21;3.92;;;2.60;;
12151;SDS011;6139;51.274;7.128;2023-05-07T00:40:22;2.50;;;2.30;;
12151;SDS011;6139;51.274;7.128;2023-05-07T00:41:24;3.03;;;2.30;;
12151;SDS011;6139;51.274;7.128;2023-05-07T00:42:25;5.95;;;2.70;;
12151;SDS011;6139;51.274;7.128;2023-05-07T00:43:28;2.33;;;2.13;;
12151;SDS011;6139;51.274;7.128;2023-05-07T00:44:30;2.92;;;2.63;;
12151;SDS011;6139;51.274;7.128;2023-05-07T00:45:32;3.53;;;2.50;;
12151;SDS011;6139;51.274;7.128;2023-05-07T00:46:34;2.67;;;2.20;;
12151;SDS011;6139;51.274;7.128;2023-05-07T00:47:36;3.63;;;2.40;;
12151;SDS011;6139;51.274;7.128;2023-05-07T00:48:37;2.60;;;2.40;;
12151;SDS011;6139;51.274;7.128;2023-05-07T00:49:39;2.95;;;2.40;;
12151;SDS011;6139;51.274;7.128;2023-05-07T00:50:43;2.40;;;2.08;;
12151;SDS011;6139;51.274;7.128;2023-05-07T00:51:45;2.67;;;2.47;;
12151;SDS011;6139;51.274;7.128;2023-05-07T00:52:47;2.33;;;2.13;;
12151;SDS011;6139;51.274;7.128;2023-05-07T00:53:49;2.80;;;2.40;;
12151;SDS011;6139;51.274;7.128;2023-05-07T00:54:50;2.58;;;2.33;;
12151;SDS011;6139;51.274;7.128;2023-05-07T00:55:52;2.40;;;2.20;;
12151;SDS011;6139;51.274;7.128;2023-05-07T00:56:54;2.78;;;2.45;;
12151;SDS011;6139;51.274;7.128;2023-05-07T00:57:56;3.30;;;2.50;;
12151;SDS011;6139;51.274;7.128;2023-05-07T00:58:57;2.60;;;2.40;;
12151;SDS011;6139;51.274;7.128;2023-05-07T01:00:00;3.08;;;2.42;;
12151;SDS011;6139;51.274;7.128;2023-05-07T01:01:01;2.65;;;2.20;;
12151;SDS011;6139;51.274;7.128;2023-05-07T01:02:04;2.72;;;2.42;;
12151;SDS011;6139;51.274;7.128;2023-05-07T01:03:05;2.83;;;2.25;;
12151;SDS011;6139;51.274;7.128;2023-05-07T01:04:07;2.63;;;2.10;;
12151;SDS011;6139;51.274;7.128;2023-05-07T01:05:09;3.05;;;2.25;;
12151;SDS011;6139;51.274;7.128;2023-05-07T01:06:13;2.22;;;2.00;;
12151;SDS011;6139;51.274;7.128;2023-05-07T01:07:16;3.28;;;2.20;;
12151;SDS011;6139;51.274;7.128;2023-05-07T01:08:18;2.50;;;2.30;;
12151;SDS011;6139;51.274;7.128;2023-05-07T01:09:20;4.47;;;2.38;;
12151;SDS011;6139;51.274;7.128;2023-05-07T01:10:23;2.55;;;2.10;;
12151;SDS011;6139;51.274;7.128;2023-05-07T01:11:25;2.83;;;2.20;;
12151;SDS011;6139;51.274;7.128;2023-05-07T01:12:27;2.33;;;2.10;;
12151;SDS011;6139;51.274;7.128;2023-05-07T01:13:29;2.40;;;1.98;;
12151;SDS011;6139;51.274;7.128;2023-05-07T01:14:32;3.90;;;2.38;;
12151;SDS011;6139;51.274;7.128;2023-05-07T01:15:35;2.20;;;2.00;;
12151;SDS011;6139;51.274;7.128;2023-05-07T01:16:38;2.67;;;2.20;;
12151;SDS011;6139;51.274;7.128;2023-05-07T01:17:42;2.92;;;2.10;;
12151;SDS011;6139;51.274;7.128;2023-05-07T01:18:51;2.83;;;2.35;;
12151;SDS011;6139;51.274;7.128;2023-05-07T01:19:52;4.22;;;2.17;;
12151;SDS011;6139;51.274;7.128;2023-05-07T01:20:54;2.08;;;1.88;;
12151;SDS011;6139;51.274;7.128;2023-05-07T01:22:07;2.15;;;1.95;;
12151;SDS011;6139;51.274;7.128;2023-05-07T01:23:25;3.05;;;1.92;;
12151;SDS011;6139;51.274;7.128;2023-05-07T01:24:27;3.22;;;2.20;;
12151;SDS011;6139;51.274;7.128;2023-05-07T01:25:30;2.05;;;1.85;;
12151;SDS011;6139;51.274;7.128;2023-05-07T01:26:34;2.42;;;1.90;;
12151;SDS011;6139;51.274;7.128;2023-05-07T01:27:35;2.92;;;2.20;;
12151;SDS011;6139;51.274;7.128;2023-05-07T01:28:37;3.45;;;2.20;;
12151;SDS011;6139;51.274;7.128;2023-05-07T01:29:39;2.78;;;1.88;;
12151;SDS011;6139;51.274;7.128;2023-05-07T01:30:40;2.22;;;2.00;;
12151;SDS011;6139;51.274;7.128;2023-05-07T01:31:46;2.92;;;1.85;;
12151;SDS011;6139;51.274;7.128;2023-05-07T01:32:51;2.70;;;2.05;;
12151;SDS011;6139;51.274;7.128;2023-05-07T01:33:57;2.85;;;1.90;;
12151;SDS011;6139;51.274;7.128;2023-05-07T01:34:59;2.38;;;2.10;;
12151;SDS011;6139;51.274;7.128;2023-05-07T01:36:04;1.95;;;1.80;;
12151;SDS011;6139;51.274;7.128;2023-05-07T01:37:07;2.17;;;1.80;;
12151;SDS011;6139;51.274;7.128;2023-05-07T01:38:09;2.85;;;1.92;;
12151;SDS011;6139;51.274;7.128;2023-05-07T01:39:12;2.58;;;1.95;;
12151;SDS011;6139;51.274;7.128;2023-05-07T01:40:15;2.92;;;1.83;;
12151;SDS011;6139;51.274;7.128;2023-05-07T01:41:16;3.22;;;2.10;;
12151;SDS011;6139;51.274;7.128;2023-05-07T01:42:19;2.13;;;1.90;;
12151;SDS011;6139;51.274;7.128;2023-05-07T01:43:20;2.70;;;1.92;;
12151;SDS011;6139;51.274;7.128;2023-05-07T01:44:22;2.10;;;1.90;;
12151;SDS011;6139;51.274;7.128;2023-05-07T01:45:23;2.30;;;2.10;;
12151;SDS011;6139;51.274;7.128;2023-05-07T01:46:26;1.90;;;1.70;;
12151;SDS011;6139;51.274;7.128;2023-05-07T01:47:28;2.00;;;1.80;;
12151;SDS011;6139;51.274;7.128;2023-05-07T01:48:31;2.92;;;2.10;;
12151;SDS011;6139;51.274;7.128;2023-05-07T01:49:33;2.20;;;1.85;;
12151;SDS011;6139;51.274;7.128;2023-05-07T01:50:35;3.13;;;1.80;;
12151;SDS011;6139;51.274;7.128;2023-05-07T01:51:37;1.80;;;1.70;;
12151;SDS011;6139;51.274;7.128;2023-05-07T01:52:40;4.32;;;1.92;;
12151;SDS011;6139;51.274;7.128;2023-05-07T01:53:41;2.13;;;1.80;;
12151;SDS011;6139;51.274;7.128;2023-05-07T01:54:45;2.80;;;1.90;;
12151;SDS011;6139;51.274;7.128;2023-05-07T01:55:46;2.78;;;1.92;;
12151;SDS011;6139;51.274;7.128;2023-05-07T01:56:49;2.20;;;2.00;;
12151;SDS011;6139;51.274;7.128;2023-05-07T01:57:50;1.90;;;1.80;;
12151;SDS011;6139;51.274;7.128;2023-05-07T01:58:52;2.70;;;1.98;;
12151;SDS011;6139;51.274;7.128;2023-05-07T01:59:53;2.55;;;1.90;;
12151;SDS011;6139;51.274;7.128;2023-05-07T02:00:56;2.88;;;2.00;;
12151;SDS011;6139;51.274;7.128;2023-05-07T02:01:57;3.35;;;2.00;;
12151;SDS011;6139;51.274;7.128;2023-05-07T02:02:59;2.03;;;1.83;;
12151;SDS011;6139;51.274;7.128;2023-05-07T02:04:09;1.58;;;1.48;;
12151;SDS011;6139;51.274;7.128;2023-05-07T02:05:11;2.33;;;2.10;;
12151;SDS011;6139;51.274;7.128;2023-05-07T02:06:13;1.80;;;1.60;;
12151;SDS011;6139;51.274;7.128;2023-05-07T02:07:15;2.40;;;2.10;;
12151;SDS011;6139;51.274;7.128;2023-05-07T02:08:16;2.90;;;2.03;;
12151;SDS011;6139;51.274;7.128;2023-05-07T02:09:18;2.10;;;1.90;;
12151;SDS011;6139;51.274;7.128;2023-05-07T02:10:23;2.83;;;2.13;;
12151;SDS011;6139;51.274;7.128;2023-05-07T02:11:25;2.17;;;1.70;;
12151;SDS011;6139;51.274;7.128;2023-05-07T02:12:27;3.35;;;1.83;;
12151;SDS011;6139;51.274;7.128;2023-05-07T02:13:29;1.98;;;1.77;;
12151;SDS011;6139;51.274;7.128;2023-05-07T02:14:32;2.55;;;1.70;;
12151;SDS011;6139;51.274;7.128;2023-05-07T02:15:34;2.67;;;1.73;;
12151;SDS011;6139;51.274;7.128;2023-05-07T02:16:36;2.10;;;1.90;;
12151;SDS011;6139;51.274;7.128;2023-05-07T02:17:39;2.72;;;2.00;;
12151;SDS011;6139;51.274;7.128;2023-05-07T02:18:58;3.40;;;1.88;;
12151;SDS011;6139;51.274;7.128;2023-05-07T02:20:01;2.90;;;2.00;;
12151;SDS011;6139;51.274;7.128;2023-05-07T02:21:03;2.33;;;1.80;;
12151;SDS011;6139;51.274;7.128;2023-05-07T02:22:05;2.10;;;1.90;;
12151;SDS011;6139;51.274;7.128;2023-05-07T02:23:07;2.05;;;1.83;;
12151;SDS011;6139;51.274;7.128;2023-05-07T02:24:09;2.05;;;1.85;;
12151;SDS011;6139;51.274;7.128;2023-05-07T02:25:10;2.35;;;1.83;;
12151;SDS011;6139;51.274;7.128;2023-05-07T02:26:13;2.88;;;1.88;;
12151;SDS011;6139;51.274;7.128;2023-05-07T02:27:14;1.83;;;1.73;;
12151;SDS011;6139;51.274;7.128;2023-05-07T02:28:18;2.65;;;1.80;;
12151;SDS011;6139;51.274;7.128;2023-05-07T02:29:24;3.65;;;1.80;;
12151;SDS011;6139;51.274;7.128;2023-05-07T02:30:28;2.20;;;1.90;;
12151;SDS011;6139;51.274;7.128;2023-05-07T02:31:31;2.10;;;1.80;;
12151;SDS011;6139;51.274;7.128;2023-05-07T02:32:34;2.25;;;1.70;;
12151;SDS011;6139;51.274;7.128;2023-05-07T02:33:35;3.78;;;1.90;;
12151;SDS011;6139;51.274;7.128;2023-05-07T02:34:39;2.35;;;1.80;;
12151;SDS011;6139;51.274;7.128;2023-05-07T02:35:40;2.67;;;1.70;;
12151;SDS011;6139;51.274;7.128;2023-05-07T02:36:43;1.90;;;1.67;;
12151;SDS011;6139;51.274;7.128;2023-05-07T02:37:47;2.00;;;1.70;;
12151;SDS011;6139;51.274;7.128;2023-05-07T02:38:49;2.00;;;1.80;;
12151;SDS011;6139;51.274;7.128;2023-05-07T02:39:50;4.00;;;2.10;;
12151;SDS011;6139;51.274;7.128;2023-05-07T02:40:52;2.30;;;1.92;;
12151;SDS011;6139;51.274;7.128;2023-05-07T02:41:55;2.65;;;1.60;;
12151;SDS011;6139;51.274;7.128;2023-05-07T02:42:57;2.47;;;2.10;;
12151;SDS011;6139;51.274;7.128;2023-05-07T02:43:58;2.88;;;1.80;;
12151;SDS011;6139;51.274;7.128;2023-05-07T02:45:00;2.25;;;2.05;;
12151;SDS011;6139;51.274;7.128;2023-05-07T02:46:01;2.30;;;2.10;;
12151;SDS011;6139;51.274;7.128;2023-05-07T02:47:04;2.47;;;1.98;;
12151;SDS011;6139;51.274;7.128;2023-05-07T02:48:08;1.98;;;1.77;;
12151;SDS011;6139;51.274;7.128;2023-05-07T02:49:10;1.95;;;1.83;;
12151;SDS011;6139;51.274;7.128;2023-05-07T02:50:12;2.00;;;1.75;;
12151;SDS011;6139;51.274;7.128;2023-05-07T02:51:14;3.72;;;2.17;;
12151;SDS011;6139;51.274;7.128;2023-05-07T02:52:16;2.20;;;2.00;;
12151;SDS011;6139;51.274;7.128;2023-05-07T02:53:18;2.22;;;1.90;;
12151;SDS011;6139;51.274;7.128;2023-05-07T02:54:19;3.78;;;2.08;;
12151;SDS011;6139;51.274;7.128;2023-05-07T02:55:21;2.67;;;1.88;;
12151;SDS011;6139;51.274;7.128;2023-05-07T02:56:22;3.05;;;1.85;;
12151;SDS011;6139;51.274;7.128;2023-05-07T02:57:29;2.10;;;1.88;;
12151;SDS011;6139;51.274;7.128;2023-05-07T02:58:30;4.43;;;2.20;;
12151;SDS011;6139;51.274;7.128;2023-05-07T02:59:33;2.03;;;1.83;;
12151;SDS011;6139;51.274;7.128;2023-05-07T03:00:34;3.05;;;1.95;;
12151;SDS011;6139;51.274;7.128;2023-05-07T03:01:55;2.25;;;1.80;;
12151;SDS011;6139;51.274;7.128;2023-05-07T03:02:57;2.45;;;2.10;;
12151;SDS011;6139;51.274;7.128;2023-05-07T03:03:59;2.00;;;1.80;;
12151;SDS011;6139;51.274;7.128;2023-05-07T03:05:00;2.63;;;2.05;;
12151;SDS011;6139;51.274;7.128;2023-05-07T03:06:02;2.20;;;2.00;;
12151;SDS011;6139;51.274;7.128;2023-05-07T03:07:03;2.47;;;2.20;;
12151;SDS011;6139;51.274;7.128;2023-05-07T03:08:05;1.98;;;1.80;;
12151;SDS011;6139;51.274;7.128;2023-05-07T03:09:07;2.63;;;2.03;;
12151;SDS011;6139;51.274;7.128;2023-05-07T03:10:09;2.83;;;2.03;;
12151;SDS011;6139;51.274;7.128;2023-05-07T03:11:10;1.98;;;1.80;;
12151;SDS011;6139;51.274;7.128;2023-05-07T03:12:12;1.95;;;1.85;;
12151;SDS011;6139;51.274;7.128;2023-05-07T03:13:14;2.33;;;1.92;;
12151;SDS011;6139;51.274;7.128;2023-05-07T03:14:16;2.00;;;1.80;;
12151;SDS011;6139;51.274;7.128;2023-05-07T03:15:17;1.95;;;1.73;;
12151;SDS011;6139;51.274;7.128;2023-05-07T03:16:19;2.00;;;1.90;;
12151;SDS011;6139;51.274;7.128;2023-05-07T03:17:21;2.05;;;1.90;;
12151;SDS011;6139;51.274;7.128;2023-05-07T03:18:23;1.80;;;1.70;;
12151;SDS011;6139;51.274;7.128;2023-05-07T03:19:24;1.98;;;1.75;;
12151;SDS011;6139;51.274;7.128;2023-05-07T03:20:26;2.25;;;1.80;;
12151;SDS011;6139;51.274;7.128;2023-05-07T03:21:27;2.15;;;1.90;;
12151;SDS011;6139;51.274;7.128;2023-05-07T03:22:30;2.00;;;1.80;;
12151;SDS011;6139;51.274;7.128;2023-05-07T03:23:31;2.95;;;1.80;;
12151;SDS011;6139;51.274;7.128;2023-05-07T03:24:33;1.85;;;1.75;;
12151;SDS011;6139;51.274;7.128;2023-05-07T03:25:34;3.90;;;2.08;;
12151;SDS011;6139;51.274;7.128;2023-05-07T03:26:36;2.40;;;2.20;;
12151;SDS011;6139;51.274;7.128;2023-05-07T03:27:37;3.15;;;2.17;;
12151;SDS011;6139;51.274;7.128;2023-05-07T03:28:40;3.28;;;1.80;;
12151;SDS011;6139;51.274;7.128;2023-05-07T03:29:45;2.20;;;1.90;;
12151;SDS011;6139;51.274;7.128;2023-05-07T03:30:47;2.35;;;1.95;;
12151;SDS011;6139;51.274;7.128;2023-05-07T03:31:48;2.75;;;1.80;;
12151;SDS011;6139;51.274;7.128;2023-05-07T03:32:50;1.70;;;1.60;;
12151;SDS011;6139;51.274;7.128;2023-05-07T03:33:51;3.08;;;1.98;;
12151;SDS011;6139;51.274;7.128;2023-05-07T03:34:54;2.00;;;1.90;;
12151;SDS011;6139;51.274;7.128;2023-05-07T03:35:56;3.88;;;2.97;;
12151;SDS011;6139;51.274;7.128;2023-05-07T03:36:59;2.10;;;1.90;;
12151;SDS011;6139;51.274;7.128;2023-05-07T03:38:01;2.22;;;2.03;;
12151;SDS011;6139;51.274;7.128;2023-05-07T03:39:05;2.78;;;2.20;;
12151;SDS011;6139;51.274;7.128;2023-05-07T03:40:12;2.75;;;2.03;;
12151;SDS011;6139;51.274;7.128;2023-05-07T03:41:23;2.08;;;1.90;;
12151;SDS011;6139;51.274;7.128;2023-05-07T03:42:26;1.80;;;1.70;;
12151;SDS011;6139;51.274;7.128;2023-05-07T03:43:26;2.20;;;1.90;;
12151;SDS011;6139;51.274;7.128;2023-05-07T03:44:37;2.20;;;1.75;;
12151;SDS011;6139;51.274;7.128;2023-05-07T03:45:38;2.47;;;1.90;;
12151;SDS011;6139;51.274;7.128;2023-05-07T03:46:48;3.80;;;1.85;;
12151;SDS011;6139;51.274;7.128;2023-05-07T03:47:49;1.83;;;1.60;;
12151;SDS011;6139;51.274;7.128;2023-05-07T03:48:53;2.15;;;1.95;;
12151;SDS011;6139;51.274;7.128;2023-05-07T03:49:55;2.05;;;1.88;;
12151;SDS011;6139;51.274;7.128;2023-05-07T03:50:58;4.53;;;1.70;;
12151;SDS011;6139;51.274;7.128;2023-05-07T03:52:03;1.92;;;1.67;;
12151;SDS011;6139;51.274;7.128;2023-05-07T03:53:06;2.13;;;1.70;;
12151;SDS011;6139;51.274;7.128;2023-05-07T03:54:11;2.30;;;1.65;;
12151;SDS011;6139;51.274;7.128;2023-05-07T03:55:17;2.83;;;1.75;;
12151;SDS011;6139;51.274;7.128;2023-05-07T03:56:24;2.22;;;1.83;;
12151;SDS011;6139;51.274;7.128;2023-05-07T03:57:28;2.22;;;2.03;;
12151;SDS011;6139;51.274;7.128;2023-05-07T03:58:30;3.17;;;1.90;;
12151;SDS011;6139;51.274;7.128;2023-05-07T03:59:36;2.58;;;1.67;;
12151;SDS011;6139;51.274;7.128;2023-05-07T04:00:38;2.10;;;1.90;;
12151;SDS011;6139;51.274;7.128;2023-05-07T04:01:51;2.53;;;1.90;;
12151;SDS011;6139;51.274;7.128;2023-05-07T04:02:55;2.30;;;2.05;;
12151;SDS011;6139;51.274;7.128;2023-05-07T04:04:00;1.88;;;1.77;;
12151;SDS011;6139;51.274;7.128;2023-05-07T04:05:01;2.85;;;1.80;;
12151;SDS011;6139;51.274;7.128;2023-05-07T04:06:03;2.00;;;1.77;;
12151;SDS011;6139;51.274;7.128;2023-05-07T04:07:06;2.20;;;2.00;;
12151;SDS011;6139;51.274;7.128;2023-05-07T04:08:13;3.42;;;1.85;;
12151;SDS011;6139;51.274;7.128;2023-05-07T04:09:19;2.10;;;2.00;;
12151;SDS011;6139;51.274;7.128;2023-05-07T04:10:22;2.38;;;1.85;;
12151;SDS011;6139;51.274;7.128;2023-05-07T04:11:26;2.63;;;1.73;;
12151;SDS011;6139;51.274;7.128;2023-05-07T04:12:28;2.00;;;1.75;;
12151;SDS011;6139;51.274;7.128;2023-05-07T04:13:29;2.33;;;1.70;;
12151;SDS011;6139;51.274;7.128;2023-05-07T04:14:33;2.17;;;1.88;;
12151;SDS011;6139;51.274;7.128;2023-05-07T04:15:36;2.67;;;1.90;;
12151;SDS011;6139;51.274;7.128;2023-05-07T04:16:42;3.15;;;2.10;;
12151;SDS011;6139;51.274;7.128;2023-05-07T04:17:43;2.78;;;2.00;;
12151;SDS011;6139;51.274;7.128;2023-05-07T04:18:46;1.67;;;1.58;;
12151;SDS011;6139;51.274;7.128;2023-05-07T04:19:47;2.33;;;1.80;;
12151;SDS011;6139;51.274;7.128;2023-05-07T04:20:50;2.17;;;1.65;;
12151;SDS011;6139;51.274;7.128;2023-05-07T04:21:51;2.10;;;1.70;;
12151;SDS011;6139;51.274;7.128;2023-05-07T04:22:53;2.75;;;1.63;;
12151;SDS011;6139;51.274;7.128;2023-05-07T04:23:55;2.03;;;1.73;;
12151;SDS011;6139;51.274;7.128;2023-05-07T04:24:57;2.45;;;2.10;;
12151;SDS011;6139;51.274;7.128;2023-05-07T04:25:59;2.38;;;1.60;;
12151;SDS011;6139;51.274;7.128;2023-05-07T04:27:07;2.75;;;1.92;;
12151;SDS011;6139;51.274;7.128;2023-05-07T04:28:08;2.28;;;1.75;;
12151;SDS011;6139;51.274;7.128;2023-05-07T04:29:11;2.67;;;2.45;;
12151;SDS011;6139;51.274;7.128;2023-05-07T04:30:12;2.05;;;1.88;;
12151;SDS011;6139;51.274;7.128;2023-05-07T04:31:16;3.05;;;1.80;;
12151;SDS011;6139;51.274;7.128;2023-05-07T04:32:18;2.05;;;1.88;;
12151;SDS011;6139;51.274;7.128;2023-05-07T04:33:20;1.88;;;1.67;;
12151;SDS011;6139;51.274;7.128;2023-05-07T04:34:22;2.03;;;1.80;;
12151;SDS011;6139;51.274;7.128;2023-05-07T04:35:24;2.80;;;2.00;;
12151;SDS011;6139;51.274;7.128;2023-05-07T04:36:26;3.03;;;1.60;;
12151;SDS011;6139;51.274;7.128;2023-05-07T04:37:36;2.33;;;1.80;;
12151;SDS011;6139;51.274;7.128;2023-05-07T04:38:37;2.53;;;1.70;;
12151;SDS011;6139;51.274;7.128;2023-05-07T04:39:39;2.85;;;1.67;;
12151;SDS011;6139;51.274;7.128;2023-05-07T04:40:41;3.53;;;1.98;;
12151;SDS011;6139;51.274;7.128;2023-05-07T04:41:45;3.50;;;2.03;;
12151;SDS011;6139;51.274;7.128;2023-05-07T04:42:46;2.42;;;1.63;;
12151;SDS011;6139;51.274;7.128;2023-05-07T04:43:48;3.42;;;1.83;;
12151;SDS011;6139;51.274;7.128;2023-05-07T04:44:52;2.65;;;1.75;;
12151;SDS011;6139;51.274;7.128;2023-05-07T04:45:55;2.25;;;1.73;;
12151;SDS011;6139;51.274;7.128;2023-05-07T04:47:00;2.38;;;2.05;;
12151;SDS011;6139;51.274;7.128;2023-05-07T04:48:03;2.70;;;1.83;;
12151;SDS011;6139;51.274;7.128;2023-05-07T04:49:05;2.30;;;1.65;;
12151;SDS011;6139;51.274;7.128;2023-05-07T04:50:09;2.85;;;1.77;;
12151;SDS011;6139;51.274;7.128;2023-05-07T04:51:11;1.70;;;1.60;;
12151;SDS011;6139;51.274;7.128;2023-05-07T04:52:14;2.80;;;1.70;;
12151;SDS011;6139;51.274;7.128;2023-05-07T04:53:15;2.33;;;1.77;;
12151;SDS011;6139;51.274;7.128;2023-05-07T04:54:17;2.70;;;1.83;;
12151;SDS011;6139;51.274;7.128;2023-05-07T04:55:18;2.15;;;1.95;;
12151;SDS011;6139;51.274;7.128;2023-05-07T04:56:20;2.72;;;1.60;;
12151;SDS011;6139;51.274;7.128;2023-05-07T04:57:21;4.07;;;1.98;;
12151;SDS011;6139;51.274;7.128;2023-05-07T04:58:23;2.75;;;1.85;;
12151;SDS011;6139;51.274;7.128;2023-05-07T04:59:25;2.00;;;1.80;;
12151;SDS011;6139;51.274;7.128;2023-05-07T05:00:26;3.63;;;1.70;;
12151;SDS011;6139;51.274;7.128;2023-05-07T05:01:29;1.90;;;1.70;;
12151;SDS011;6139;51.274;7.128;2023-05-07T05:02:32;3.17;;;1.70;;
12151;SDS011;6139;51.274;7.128;2023-05-07T05:03:33;1.92;;;1.63;;
12151;SDS011;6139;51.274;7.128;2023-05-07T05:04:36;1.95;;;1.63;;
12151;SDS011;6139;51.274;7.128;2023-05-07T05:05:37;2.03;;;1.83;;
12151;SDS011;6139;51.274;7.128;2023-05-07T05:06:40;2.35;;;1.80;;
12151;SDS011;6139;51.274;7.128;2023-05-07T05:07:41;2.28;;;2.00;;
12151;SDS011;6139;51.274;7.128;2023-05-07T05:08:44;2.10;;;1.70;;
12151;SDS011;6139;51.274;7.128;2023-05-07T05:09:46;2.35;;;1.77;;
12151;SDS011;6139;51.274;7.128;2023-05-07T05:10:47;2.55;;;1.65;;
12151;SDS011;6139;51.274;7.128;2023-05-07T05:11:50;2.25;;;1.77;;
12151;SDS011;6139;51.274;7.128;2023-05-07T05:12:51;2.53;;;1.90;;
12151;SDS011;6139;51.274;7.128;2023-05-07T05:13:54;2.83;;;1.92;;
12151;SDS011;6139;51.274;7.128;2023-05-07T05:14:56;4.07;;;2.20;;
12151;SDS011;6139;51.274;7.128;2023-05-07T05:15:57;1.50;;;1.40;;
12151;SDS011;6139;51.274;7.128;2023-05-07T05:17:00;2.30;;;1.80;;
12151;SDS011;6139;51.274;7.128;2023-05-07T05:18:03;1.83;;;1.60;;
12151;SDS011;6139;51.274;7.128;2023-05-07T05:19:05;2.25;;;1.80;;
12151;SDS011;6139;51.274;7.128;2023-05-07T05:20:10;4.10;;;1.88;;
12151;SDS011;6139;51.274;7.128;2023-05-07T05:21:13;2.40;;;1.90;;
12151;SDS011;6139;51.274;7.128;2023-05-07T05:22:17;2.95;;;1.92;;
12151;SDS011;6139;51.274;7.128;2023-05-07T05:23:18;2.22;;;1.77;;
12151;SDS011;6139;51.274;7.128;2023-05-07T05:24:20;2.10;;;1.90;;
12151;SDS011;6139;51.274;7.128;2023-05-07T05:25:21;2.75;;;1.90;;
12151;SDS011;6139;51.274;7.128;2023-05-07T05:26:23;2.00;;;1.80;;
12151;SDS011;6139;51.274;7.128;2023-05-07T05:27:24;2.42;;;1.67;;
12151;SDS011;6139;51.274;7.128;2023-05-07T05:28:26;2.60;;;1.85;;
12151;SDS011;6139;51.274;7.128;2023-05-07T05:29:28;2.55;;;1.80;;
12151;SDS011;6139;51.274;7.128;2023-05-07T05:30:31;2.40;;;1.80;;
12151;SDS011;6139;51.274;7.128;2023-05-07T05:31:32;3.25;;;2.05;;
12151;SDS011;6139;51.274;7.128;2023-05-07T05:32:34;2.13;;;1.92;;
12151;SDS011;6139;51.274;7.128;2023-05-07T05:33:37;2.30;;;2.05;;
12151;SDS011;6139;51.274;7.128;2023-05-07T05:34:39;2.78;;;1.90;;
12151;SDS011;6139;51.274;7.128;2023-05-07T05:35:40;2.17;;;1.98;;
12151;SDS011;6139;51.274;7.128;2023-05-07T05:36:45;2.00;;;1.80;;
12151;SDS011;6139;51.274;7.128;2023-05-07T05:37:48;2.20;;;2.00;;
12151;SDS011;6139;51.274;7.128;2023-05-07T05:38:51;2.42;;;1.80;;
12151;SDS011;6139;51.274;7.128;2023-05-07T05:39:52;2.28;;;1.88;;
12151;SDS011;6139;51.274;7.128;2023-05-07T05:40:56;2.20;;;2.00;;
12151;SDS011;6139;51.274;7.128;2023-05-07T05:41:57;2.55;;;1.83;;
12151;SDS011;6139;51.274;7.128;2023-05-07T05:42:59;3.08;;;1.73;;
12151;SDS011;6139;51.274;7.128;2023-05-07T05:44:00;1.98;;;1.75;;
12151;SDS011;6139;51.274;7.128;2023-05-07T05:45:03;2.72;;;2.10;;
12151;SDS011;6139;51.274;7.128;2023-05-07T05:46:06;3.38;;;2.10;;
12151;SDS011;6139;51.274;7.128;2023-05-07T05:47:09;2.33;;;2.13;;
12151;SDS011;6139;51.274;7.128;2023-05-07T05:48:10;2.95;;;2.10;;
12151;SDS011;6139;51.274;7.128;2023-05-07T05:49:14;4.25;;;2.10;;
12151;SDS011;6139;51.274;7.128;2023-05-07T05:50:16;2.47;;;2.00;;
12151;SDS011;6139;51.274;7.128;2023-05-07T05:51:18;2.40;;;1.95;;
12151;SDS011;6139;51.274;7.128;2023-05-07T05:52:19;2.28;;;2.00;;
12151;SDS011;6139;51.274;7.128;2023-05-07T05:53:24;3.05;;;1.80;;
12151;SDS011;6139;51.274;7.128;2023-05-07T05:54:24;3.35;;;1.80;;
12151;SDS011;6139;51.274;7.128;2023-05-07T05:55:26;2.08;;;1.88;;
12151;SDS011;6139;51.274;7.128;2023-05-07T05:56:28;2.95;;;1.90;;
12151;SDS011;6139;51.274;7.128;2023-05-07T05:57:30;2.25;;;2.05;;
12151;SDS011;6139;51.274;7.128;2023-05-07T05:58:31;2.05;;;1.85;;
12151;SDS011;6139;51.274;7.128;2023-05-07T05:59:36;2.45;;;2.10;;
12151;SDS011;6139;51.274;7.128;2023-05-07T06:00:37;2.40;;;1.92;;
12151;SDS011;6139;51.274;7.128;2023-05-07T06:01:40;1.90;;;1.80;;
12151;SDS011;6139;51.274;7.128;2023-05-07T06:02:41;2.03;;;1.73;;
12151;SDS011;6139;51.274;7.128;2023-05-07T06:03:43;2.15;;;1.88;;
12151;SDS011;6139;51.274;7.128;2023-05-07T06:04:49;2.03;;;1.80;;
12151;SDS011;6139;51.274;7.128;2023-05-07T06:05:53;2.47;;;2.10;;
12151;SDS011;6139;51.274;7.128;2023-05-07T06:06:56;2.03;;;1.88;;
12151;SDS011;6139;51.274;7.128;2023-05-07T06:07:59;4.10;;;2.10;;
12151;SDS011;6139;51.274;7.128;2023-05-07T06:09:04;2.20;;;2.00;;
12151;SDS011;6139;51.274;7.128;2023-05-07T06:10:11;2.78;;;2.05;;
12151;SDS011;6139;51.274;7.128;2023-05-07T06:11:14;3.45;;;2.00;;
12151;SDS011;6139;51.274;7.128;2023-05-07T06:12:19;1.98;;;1.75;;
12151;SDS011;6139;51.274;7.128;2023-05-07T06:13:21;3.45;;;2.63;;
12151;SDS011;6139;51.274;7.128;2023-05-07T06:14:24;2.72;;;1.80;;
12151;SDS011;6139;51.274;7.128;2023-05-07T06:15:26;2.40;;;2.20;;
12151;SDS011;6139;51.274;7.128;2023-05-07T06:16:28;4.03;;;2.65;;
12151;SDS011;6139;51.274;7.128;2023-05-07T06:17:29;2.03;;;1.83;;
12151;SDS011;6139;51.274;7.128;2023-05-07T06:18:31;3.17;;;2.17;;
12151;SDS011;6139;51.274;7.128;2023-05-07T06:19:32;2.38;;;2.00;;
12151;SDS011;6139;51.274;7.128;2023-05-07T06:20:37;3.05;;;2.00;;
12151;SDS011;6139;51.274;7.128;2023-05-07T06:21:41;4.28;;;1.90;;
12151;SDS011;6139;51.274;7.128;2023-05-07T06:22:43;1.98;;;1.88;;